Laings, OH

4:15 PM EST on December 02, 2016 (GMT -0500)
paden city | | Change Station

Elev 650 ft 39.60 °N, 80.94 °W | Updated 13 seconds ago

Overcast
Overcast
37.0 °F
Feels Like 37 °F
N
3.0
Wind Variable Wind from WNW

Today
High -- | Low -- °F
--% Chance of Precip.
Yesterday
High -- | Low -- °F
Precip. -- in
Pressure 30.23 in
Visibility 6.0 miles
Clouds Mostly Cloudy 1100 ft
Overcast 4200 ft
Windchill 37 °F
Dew Point 33 °F
Humidity 88%
Rainfall 0.00 in
Snow Depth Not available.
7:27 AM 4:59 PM
Waxing Crescent, 10% visible
METAR KPKB 022053Z 27006KT 6SM BR BKN011 OVC042 02/01 A3021 RMK AO2 RAB07E27UPB08E14 SLP236 P0000 60000 T00220006 53013
Pressure 30.23 in
Visibility 6.0 miles
Clouds Mostly Cloudy 1100 ft
Overcast 4200 ft
Windchill 37 °F
Dew Point 33 °F
Humidity 88%
Rainfall 0.00 in
Snow Depth Not available.
7:27 AM 4:59 PM
Waxing Crescent, 10% visible
METAR KPKB 022053Z 27006KT 6SM BR BKN011 OVC042 02/01 A3021 RMK AO2 RAB07E27UPB08E14 SLP236 P0000 60000 T00220006 53013

10-Day Weather Forecast

Almanac

Astronomy

Dec. 02, 2016 Rise Set
Actual Time
Civil Twilight
Nautical Twilight
Astronomical Twilight
Moon
Length of Visible Light
Length of Day
Tomorrow will be .
, % of the Moon is Illuminated

Today's Extremes

State Highs State Lows

Community

WunderPhotos

Upload Photos

1,955,369 photos uploaded!

WunderBlog® & News

Nearby

Air Quality

  Air Quality AQ Index Pollutant
Not available.

Snow Depth

Station Depth Elevation

Earthquake Activity

City Distance Mag. Time & Date
Minimum magnitude displayed is 2.5.

Coastal Water Temperatures

Place Temperature

Stations

Nearby Weather Stations

Station Location Temp. Windchill Dew Point Humidity Wind Precip. Elev Updated Type
                   

Watches & Warnings

There are currently no watches in effect.